createdAt,value
2022-10-09T00:01:18.100Z,11.20
2022-10-09T00:03:46.879Z,11.31
2022-10-09T00:06:17.034Z,11.10
2022-10-09T00:08:43.528Z,11.09
2022-10-09T00:11:11.825Z,11.10
2022-10-09T00:13:38.749Z,11.32
2022-10-09T00:16:07.995Z,11.20
2022-10-09T00:18:34.942Z,11.36
2022-10-09T00:21:01.395Z,11.12
2022-10-09T00:23:29.220Z,11.15
2022-10-09T00:25:57.680Z,11.21
2022-10-09T00:28:25.847Z,10.71
2022-10-09T00:30:52.858Z,10.86
2022-10-09T00:33:19.736Z,11.22
2022-10-09T00:35:46.739Z,11.32
2022-10-09T00:38:13.725Z,11.28
2022-10-09T00:40:42.179Z,11.16
2022-10-09T00:43:14.601Z,11.16
2022-10-09T00:45:44.825Z,10.90
2022-10-09T00:48:12.202Z,11.08
2022-10-09T00:50:41.950Z,11.14
2022-10-09T00:53:11.686Z,11.07
2022-10-09T00:55:39.488Z,10.86
2022-10-09T00:58:08.136Z,10.67
2022-10-09T01:00:34.690Z,10.46
2022-10-09T01:03:01.588Z,11.02
2022-10-09T01:05:35.220Z,10.78
2022-10-09T01:08:10.161Z,10.56
2022-10-09T01:10:42.804Z,10.60
2022-10-09T01:13:19.562Z,10.58
2022-10-09T01:15:51.291Z,10.69
2022-10-09T01:18:23.977Z,10.65
2022-10-09T01:20:54.604Z,10.71
2022-10-09T01:23:41.509Z,10.56
2022-10-09T01:26:30.533Z,10.72
2022-10-09T01:29:04.635Z,10.53
2022-10-09T01:31:33.844Z,10.43
2022-10-09T01:34:01.541Z,10.59
2022-10-09T01:36:30.190Z,10.15
2022-10-09T01:38:59.608Z,10.27
2022-10-09T01:41:26.963Z,10.53
2022-10-09T01:43:53.352Z,10.01
2022-10-09T01:46:25.120Z,10.14
2022-10-09T01:48:57.590Z,10.57
2022-10-09T01:51:29.890Z,9.88
2022-10-09T01:53:59.702Z,9.86
2022-10-09T01:56:32.249Z,10.03
2022-10-09T01:59:04.994Z,10.03
2022-10-09T02:01:35.167Z,10.01
2022-10-09T02:04:07.309Z,9.93
2022-10-09T02:06:36.194Z,10.11
2022-10-09T02:09:07.484Z,9.86
2022-10-09T02:11:35.863Z,9.90
2022-10-09T02:14:02.625Z,9.86
2022-10-09T02:16:46.332Z,10.29
2022-10-09T02:19:18.704Z,10.49
2022-10-09T02:21:50.297Z,10.36
2022-10-09T02:24:19.952Z,9.97
2022-10-09T02:26:46.744Z,10.01
2022-10-09T02:29:14.722Z,10.19
2022-10-09T02:31:43.415Z,10.01
2022-10-09T02:34:11.451Z,10.42
2022-10-09T02:36:39.072Z,10.18
2022-10-09T02:39:06.850Z,10.02
2022-10-09T02:41:34.034Z,9.92
2022-10-09T02:44:00.997Z,9.31
2022-10-09T02:46:27.510Z,9.88
2022-10-09T02:48:55.303Z,9.81
2022-10-09T02:51:21.757Z,9.40
2022-10-09T02:53:48.206Z,9.92
2022-10-09T02:56:14.621Z,9.96
2022-10-09T02:58:41.167Z,9.38
2022-10-09T03:01:07.717Z,9.76
2022-10-09T03:03:34.216Z,9.71
2022-10-09T03:06:02.880Z,9.24
2022-10-09T03:08:29.499Z,9.35
2022-10-09T03:10:56.424Z,9.91
2022-10-09T03:13:23.075Z,9.26
2022-10-09T03:15:49.795Z,9.10
2022-10-09T03:18:16.264Z,9.21
2022-10-09T03:20:42.733Z,9.20
2022-10-09T03:23:11.823Z,9.56
2022-10-09T03:25:38.255Z,9.31
2022-10-09T03:28:04.730Z,9.49
2022-10-09T03:30:31.211Z,9.59
2022-10-09T03:32:57.651Z,9.48
2022-10-09T03:35:24.225Z,9.85
2022-10-09T03:37:50.649Z,9.75
2022-10-09T03:40:18.427Z,9.72
2022-10-09T03:42:44.856Z,9.83
2022-10-09T03:45:11.262Z,9.74
2022-10-09T03:47:37.716Z,9.79
2022-10-09T03:50:04.857Z,9.89
2022-10-09T03:52:31.237Z,10.20
2022-10-09T03:54:57.797Z,10.19
2022-10-09T03:57:25.544Z,10.04
2022-10-09T03:59:52.048Z,10.14
2022-10-09T04:02:18.500Z,9.79
2022-10-09T04:04:44.963Z,9.54
2022-10-09T04:07:11.697Z,9.60
2022-10-09T04:09:38.081Z,9.38
2022-10-09T04:12:04.681Z,9.33
2022-10-09T04:14:32.490Z,9.72
2022-10-09T04:16:59.060Z,9.25
2022-10-09T04:19:25.454Z,9.33
2022-10-09T04:21:51.857Z,9.48
2022-10-09T04:24:18.273Z,9.25
2022-10-09T04:26:44.661Z,9.35
2022-10-09T04:29:11.114Z,9.35
2022-10-09T04:31:39.121Z,9.31
2022-10-09T04:34:05.674Z,9.73
2022-10-09T04:36:32.094Z,10.00
2022-10-09T04:38:58.554Z,9.26
2022-10-09T04:41:24.970Z,9.76
2022-10-09T04:43:54.223Z,9.54
2022-10-09T04:46:20.617Z,9.83
2022-10-09T04:48:48.431Z,9.83
2022-10-09T04:51:15.935Z,9.64
2022-10-09T04:53:42.840Z,9.45
2022-10-09T04:56:11.104Z,9.36
2022-10-09T04:58:37.964Z,9.32
2022-10-09T05:01:06.103Z,9.47
2022-10-09T05:03:32.610Z,9.46
2022-10-09T05:06:01.732Z,9.49
2022-10-09T05:08:28.222Z,9.73
2022-10-09T05:10:59.763Z,9.25
2022-10-09T05:13:26.180Z,8.94
2022-10-09T05:15:52.608Z,9.52
2022-10-09T05:18:19.046Z,9.37
2022-10-09T05:20:45.446Z,9.00
2022-10-09T05:23:13.202Z,9.29
2022-10-09T05:25:39.594Z,9.21
2022-10-09T05:28:06.112Z,9.09
2022-10-09T05:30:32.524Z,8.88
2022-10-09T05:32:58.914Z,9.38
2022-10-09T05:35:25.398Z,9.65
2022-10-09T05:37:51.800Z,9.50
2022-10-09T05:40:19.512Z,8.99
2022-10-09T05:42:49.535Z,9.34
2022-10-09T05:45:16.114Z,9.35
2022-10-09T05:47:42.488Z,9.43
2022-10-09T05:50:09.333Z,9.10
2022-10-09T05:52:35.924Z,9.36
2022-10-09T05:55:02.316Z,8.65
2022-10-09T05:57:30.239Z,9.14
2022-10-09T05:59:56.604Z,8.83
2022-10-09T06:02:23.284Z,8.90
2022-10-09T06:04:49.774Z,9.27
2022-10-09T06:07:16.271Z,9.50
2022-10-09T06:09:42.698Z,9.29
2022-10-09T06:12:09.136Z,9.48
2022-10-09T06:14:36.913Z,9.38
2022-10-09T06:17:03.374Z,9.66
2022-10-09T06:19:29.841Z,9.60
2022-10-09T06:21:56.259Z,9.68
2022-10-09T06:24:28.688Z,9.48
2022-10-09T06:26:55.989Z,9.84
2022-10-09T06:29:22.648Z,9.79
2022-10-09T06:31:50.393Z,9.77
2022-10-09T06:34:16.951Z,9.93
2022-10-09T06:36:43.389Z,9.85
2022-10-09T06:39:10.297Z,9.97
2022-10-09T06:41:36.737Z,9.90
2022-10-09T06:44:04.956Z,10.17
2022-10-09T06:46:33.267Z,10.20
2022-10-09T06:49:01.606Z,10.10
2022-10-09T06:51:29.104Z,10.19
2022-10-09T06:53:57.238Z,10.15
2022-10-09T06:56:25.824Z,10.03
2022-10-09T06:58:52.382Z,10.19
2022-10-09T07:01:20.664Z,10.19
2022-10-09T07:03:52.285Z,10.41
2022-10-09T07:06:21.786Z,10.55
2022-10-09T07:08:50.173Z,10.34
2022-10-09T07:11:18.831Z,10.65
2022-10-09T07:13:45.227Z,10.69
2022-10-09T07:16:11.673Z,10.83
2022-10-09T07:18:38.919Z,11.07
2022-10-09T07:21:07.207Z,10.95
2022-10-09T07:23:36.085Z,11.08
2022-10-09T07:26:10.529Z,10.65
2022-10-09T07:28:37.062Z,11.15
2022-10-09T07:31:04.535Z,10.39
2022-10-09T07:33:31.469Z,10.75
2022-10-09T07:36:00.115Z,10.82
2022-10-09T07:38:27.340Z,11.05
2022-10-09T07:40:59.217Z,11.30
2022-10-09T07:43:25.609Z,10.95
2022-10-09T07:45:51.995Z,10.70
2022-10-09T07:48:18.583Z,11.04
2022-10-09T07:50:44.994Z,11.29
2022-10-09T07:53:11.444Z,11.23
2022-10-09T07:55:44.775Z,11.32
2022-10-09T07:58:12.621Z,11.24
2022-10-09T08:00:39.262Z,11.02
2022-10-09T08:03:05.863Z,10.96
2022-10-09T08:05:32.304Z,11.28
2022-10-09T08:07:58.828Z,11.42
2022-10-09T08:10:25.486Z,11.28
2022-10-09T08:12:52.171Z,11.41
2022-10-09T08:15:20.189Z,12.04
2022-10-09T08:17:46.604Z,11.45
2022-10-09T08:20:13.020Z,11.87
2022-10-09T08:22:39.463Z,11.92
2022-10-09T08:25:06.687Z,11.76
2022-10-09T08:27:33.064Z,11.67
2022-10-09T08:29:59.564Z,12.01
2022-10-09T08:32:27.370Z,12.13
2022-10-09T08:34:53.769Z,12.06
2022-10-09T08:37:20.229Z,12.02
2022-10-09T08:39:46.674Z,12.27
2022-10-09T08:42:26.142Z,12.25
2022-10-09T08:44:52.837Z,12.35
2022-10-09T08:47:24.153Z,12.41
2022-10-09T08:49:56.764Z,12.56
2022-10-09T08:52:37.911Z,12.30
2022-10-09T08:55:14.329Z,12.38
2022-10-09T08:57:40.967Z,12.54
2022-10-09T09:00:14.700Z,12.74
2022-10-09T09:02:49.386Z,12.54
2022-10-09T09:05:30.360Z,12.99
2022-10-09T09:08:05.771Z,13.11
2022-10-09T09:10:41.088Z,12.68
2022-10-09T09:13:22.290Z,12.79
2022-10-09T09:15:55.525Z,13.02
2022-10-09T09:18:38.578Z,13.19
2022-10-09T09:21:16.962Z,13.18
2022-10-09T09:23:46.724Z,13.30
2022-10-09T09:26:16.303Z,13.15
2022-10-09T09:28:44.099Z,13.41
2022-10-09T09:31:16.882Z,13.63
2022-10-09T09:33:49.992Z,13.59
2022-10-09T09:36:22.597Z,13.28
2022-10-09T09:39:35.072Z,13.71
2022-10-09T09:41:36.395Z,13.24
2022-10-09T09:44:03.687Z,13.33
2022-10-09T09:46:32.157Z,13.61
2022-10-09T09:48:58.798Z,13.73
2022-10-09T09:51:29.746Z,13.89
2022-10-09T09:53:59.398Z,13.64
2022-10-09T09:56:47.740Z,13.97
2022-10-09T09:59:30.836Z,13.86
2022-10-09T10:02:01.707Z,13.79
2022-10-09T10:04:28.262Z,13.73
2022-10-09T10:06:56.137Z,14.27
2022-10-09T10:09:22.634Z,13.74
2022-10-09T10:11:55.157Z,14.07
2022-10-09T10:14:21.821Z,13.95
2022-10-09T10:16:50.115Z,14.53
2022-10-09T10:19:21.480Z,14.34
2022-10-09T10:21:48.882Z,14.42
2022-10-09T10:24:23.532Z,13.75
2022-10-09T10:26:53.858Z,14.74
2022-10-09T10:29:23.392Z,14.45
2022-10-09T10:31:53.806Z,14.66
2022-10-09T10:34:26.118Z,14.31
2022-10-09T10:37:02.567Z,14.52
2022-10-09T10:39:36.856Z,14.82
2022-10-09T10:42:11.659Z,14.54
2022-10-09T10:44:47.218Z,14.90
2022-10-09T10:47:18.272Z,14.65
2022-10-09T10:49:44.796Z,14.84
2022-10-09T10:52:25.158Z,14.73
2022-10-09T10:54:59.758Z,14.74
2022-10-09T10:57:34.006Z,15.49
2022-10-09T11:00:05.153Z,15.10
2022-10-09T11:03:00.830Z,15.70
2022-10-09T11:05:36.300Z,14.98
2022-10-09T11:08:19.972Z,15.84
2022-10-09T11:10:56.559Z,14.96
2022-10-09T11:13:27.389Z,15.18
2022-10-09T11:16:01.149Z,14.87
2022-10-09T11:18:45.782Z,15.33
2022-10-09T11:21:24.796Z,15.51
2022-10-09T11:24:18.646Z,15.17
2022-10-09T11:26:57.563Z,15.17
2022-10-09T11:29:34.464Z,14.98
2022-10-09T11:32:06.001Z,15.40
2022-10-09T11:34:38.876Z,15.48
2022-10-09T11:37:12.601Z,15.74
2022-10-09T11:39:39.526Z,15.55
2022-10-09T11:42:12.523Z,15.90
2022-10-09T11:44:46.541Z,15.16
2022-10-09T11:47:20.458Z,15.91
2022-10-09T11:50:04.709Z,16.26
2022-10-09T11:52:42.007Z,16.57
2022-10-09T11:55:16.507Z,15.64
2022-10-09T11:57:44.304Z,16.09
2022-10-09T12:00:11.825Z,15.81
2022-10-09T12:02:40.127Z,15.59
2022-10-09T12:05:17.208Z,15.63
2022-10-09T12:07:43.923Z,15.94
2022-10-09T12:10:31.306Z,16.02
2022-10-09T12:13:02.266Z,15.98
2022-10-09T12:15:38.409Z,16.03
2022-10-09T12:18:16.648Z,15.75
2022-10-09T12:20:47.808Z,15.41
2022-10-09T12:23:28.029Z,15.76
2022-10-09T12:25:56.057Z,16.42
2022-10-09T12:28:30.367Z,16.72
2022-10-09T12:30:59.475Z,16.34
2022-10-09T12:33:30.032Z,15.48
2022-10-09T12:36:04.924Z,15.50
2022-10-09T12:38:32.020Z,16.03
2022-10-09T12:41:01.638Z,15.65
2022-10-09T12:43:30.565Z,15.99
2022-10-09T12:45:57.293Z,16.18
2022-10-09T12:48:26.072Z,15.69
2022-10-09T12:50:53.268Z,16.08
2022-10-09T12:53:22.367Z,15.59
2022-10-09T12:55:51.804Z,15.66
2022-10-09T12:58:20.780Z,16.32
2022-10-09T13:00:50.819Z,16.02
2022-10-09T13:03:25.719Z,15.92
2022-10-09T13:05:53.322Z,16.67
2022-10-09T13:08:25.615Z,15.73
2022-10-09T13:10:53.006Z,15.69
2022-10-09T13:13:23.020Z,16.20
2022-10-09T13:16:00.599Z,16.49
2022-10-09T13:18:27.689Z,15.94
2022-10-09T13:21:02.851Z,15.27
2022-10-09T13:23:31.480Z,15.80
2022-10-09T13:26:01.173Z,15.99
2022-10-09T13:28:30.104Z,16.30
2022-10-09T13:30:56.729Z,15.99
2022-10-09T13:33:24.510Z,16.23
2022-10-09T13:35:50.900Z,16.53
2022-10-09T13:38:18.330Z,15.89
2022-10-09T13:40:44.734Z,16.02
2022-10-09T13:43:18.084Z,15.97
2022-10-09T13:45:44.591Z,16.53
2022-10-09T13:48:11.032Z,16.26
2022-10-09T13:50:38.868Z,16.03
2022-10-09T13:53:05.385Z,15.81
2022-10-09T13:55:31.786Z,15.96
2022-10-09T13:57:58.204Z,16.05
2022-10-09T14:00:25.071Z,16.02
2022-10-09T14:02:51.476Z,15.68
2022-10-09T14:05:18.143Z,15.69
2022-10-09T14:07:45.885Z,15.55
2022-10-09T14:10:12.451Z,15.86
2022-10-09T14:12:39.381Z,16.17
2022-10-09T14:15:06.938Z,15.77
2022-10-09T14:17:33.515Z,16.06
2022-10-09T14:19:59.928Z,16.19
2022-10-09T14:22:26.346Z,16.11
2022-10-09T14:24:54.099Z,16.30
2022-10-09T14:27:20.481Z,16.37
2022-10-09T14:29:46.887Z,16.24
2022-10-09T14:32:13.300Z,16.02
2022-10-09T14:34:39.745Z,15.95
2022-10-09T14:37:18.548Z,16.23
2022-10-09T14:39:45.567Z,16.08
2022-10-09T14:42:13.310Z,15.59
2022-10-09T14:44:40.073Z,15.45
2022-10-09T14:47:06.538Z,15.63
2022-10-09T14:49:32.923Z,15.70
2022-10-09T14:51:59.327Z,15.61
2022-10-09T14:54:25.732Z,15.72
2022-10-09T14:56:52.214Z,15.30
2022-10-09T14:59:20.077Z,15.31
2022-10-09T15:01:46.543Z,15.41
2022-10-09T15:04:13.000Z,15.54
2022-10-09T15:06:39.436Z,15.38
2022-10-09T15:09:06.194Z,15.73
2022-10-09T15:11:34.131Z,15.71
2022-10-09T15:14:00.580Z,15.87
2022-10-09T15:16:42.792Z,15.57
2022-10-09T15:19:09.325Z,15.66
2022-10-09T15:21:36.168Z,15.66
2022-10-09T15:24:04.377Z,15.62
2022-10-09T15:26:32.391Z,15.56
2022-10-09T15:29:01.156Z,15.53
2022-10-09T15:31:30.811Z,15.49
2022-10-09T15:33:58.300Z,15.59
2022-10-09T15:36:25.400Z,15.45
2022-10-09T15:38:52.006Z,15.09
2022-10-09T15:41:23.000Z,15.61
2022-10-09T15:43:50.254Z,15.60
2022-10-09T15:46:16.705Z,15.28
2022-10-09T15:48:44.636Z,15.55
2022-10-09T15:51:11.448Z,16.04
2022-10-09T15:53:38.024Z,15.48
2022-10-09T15:56:05.496Z,15.70
2022-10-09T15:58:31.992Z,15.13
2022-10-09T16:01:03.835Z,14.93
2022-10-09T16:03:32.531Z,15.13
2022-10-09T16:06:04.058Z,15.18
2022-10-09T16:08:30.916Z,15.20
2022-10-09T16:10:57.787Z,15.59
2022-10-09T16:13:26.020Z,15.46
2022-10-09T16:15:52.732Z,15.60
2022-10-09T16:18:21.508Z,15.34
2022-10-09T16:20:48.708Z,15.49
2022-10-09T16:23:17.615Z,15.43
2022-10-09T16:25:44.078Z,15.23
2022-10-09T16:28:12.610Z,14.84
2022-10-09T16:30:40.815Z,15.11
2022-10-09T16:33:12.254Z,15.15
2022-10-09T16:35:39.239Z,15.37
2022-10-09T16:38:05.791Z,14.90
2022-10-09T16:40:57.500Z,14.75
2022-10-09T16:43:20.072Z,14.49
2022-10-09T16:45:46.606Z,14.61
2022-10-09T16:48:12.998Z,14.83
2022-10-09T16:50:40.676Z,14.69
2022-10-09T16:53:07.190Z,14.42
2022-10-09T16:55:35.016Z,14.40
2022-10-09T16:58:01.414Z,14.87
2022-10-09T17:00:28.019Z,14.80
2022-10-09T17:02:54.466Z,14.27
2022-10-09T17:05:20.886Z,14.39
2022-10-09T17:07:47.483Z,14.49
2022-10-09T17:10:14.169Z,14.46
2022-10-09T17:12:41.937Z,14.54
2022-10-09T17:15:08.639Z,14.27
2022-10-09T17:17:35.077Z,14.40
2022-10-09T17:20:01.571Z,14.27
2022-10-09T17:22:27.992Z,14.18
2022-10-09T17:24:54.478Z,13.91
2022-10-09T17:27:21.049Z,13.95
2022-10-09T17:29:48.978Z,13.88
2022-10-09T17:32:15.527Z,14.04
2022-10-09T17:34:41.964Z,14.10
2022-10-09T17:37:08.446Z,13.78
2022-10-09T17:39:34.885Z,14.08
2022-10-09T17:42:01.384Z,13.98
2022-10-09T17:44:27.770Z,13.73
2022-10-09T17:46:55.520Z,13.59
2022-10-09T17:49:21.936Z,13.52
2022-10-09T17:51:48.389Z,13.12
2022-10-09T17:54:16.333Z,12.89
2022-10-09T17:56:42.833Z,13.29
2022-10-09T17:59:09.502Z,13.38
2022-10-09T18:01:36.927Z,13.07
2022-10-09T18:04:04.888Z,13.05
2022-10-09T18:06:32.716Z,12.90
2022-10-09T18:08:59.268Z,13.03
2022-10-09T18:11:27.483Z,12.91
2022-10-09T18:13:54.297Z,13.02
2022-10-09T18:16:22.936Z,12.91
2022-10-09T18:18:49.464Z,13.13
2022-10-09T18:21:17.897Z,13.07
2022-10-09T18:23:45.527Z,12.62
2022-10-09T18:26:15.101Z,12.79
2022-10-09T18:28:44.735Z,12.68
2022-10-09T18:31:16.088Z,12.53
2022-10-09T18:33:42.592Z,12.71
2022-10-09T18:36:10.976Z,12.93
2022-10-09T18:38:39.528Z,12.99
2022-10-09T18:41:08.007Z,12.87
2022-10-09T18:43:34.900Z,12.69
2022-10-09T18:46:01.416Z,12.82
2022-10-09T18:48:31.154Z,12.71
2022-10-09T18:50:58.477Z,12.53
2022-10-09T18:53:25.116Z,12.49
2022-10-09T18:55:53.097Z,12.57
2022-10-09T18:58:19.572Z,11.98
2022-10-09T19:00:46.065Z,12.56
2022-10-09T19:03:12.574Z,12.62
2022-10-09T19:05:39.176Z,12.57
2022-10-09T19:08:05.643Z,12.58
2022-10-09T19:10:32.208Z,12.32
2022-10-09T19:13:00.014Z,12.58
2022-10-09T19:15:26.447Z,12.84
2022-10-09T19:17:53.049Z,12.49
2022-10-09T19:20:19.609Z,12.19
2022-10-09T19:22:46.068Z,12.46
2022-10-09T19:25:12.512Z,12.44
2022-10-09T19:27:39.087Z,12.59
2022-10-09T19:30:08.596Z,12.56
2022-10-09T19:32:34.979Z,12.41
2022-10-09T19:35:01.456Z,12.59
2022-10-09T19:37:29.808Z,12.55
2022-10-09T19:39:56.753Z,12.59
2022-10-09T19:42:23.177Z,12.66
2022-10-09T19:44:49.589Z,12.45
2022-10-09T19:47:17.343Z,12.48
2022-10-09T19:49:43.994Z,12.51
2022-10-09T19:52:10.450Z,12.49
2022-10-09T19:54:36.862Z,12.17
2022-10-09T19:57:03.518Z,12.43
2022-10-09T19:59:30.003Z,12.56
2022-10-09T20:01:57.692Z,12.59
2022-10-09T20:04:25.701Z,12.29
2022-10-09T20:06:52.138Z,12.75
2022-10-09T20:09:18.637Z,12.47
2022-10-09T20:11:45.040Z,12.48
2022-10-09T20:14:11.496Z,12.34
2022-10-09T20:16:38.643Z,12.32
2022-10-09T20:19:05.124Z,12.51
2022-10-09T20:21:33.962Z,12.50
2022-10-09T20:24:00.739Z,12.24
2022-10-09T20:26:27.703Z,12.32
2022-10-09T20:28:54.127Z,12.27
2022-10-09T20:31:23.222Z,12.52
2022-10-09T20:33:50.584Z,12.44
2022-10-09T20:36:19.885Z,12.43
2022-10-09T20:38:48.139Z,12.28
2022-10-09T20:41:15.192Z,12.19
2022-10-09T20:43:41.690Z,12.21
2022-10-09T20:46:08.800Z,11.82
2022-10-09T20:48:35.576Z,12.32
2022-10-09T20:51:02.372Z,11.98
2022-10-09T20:53:28.929Z,11.43
2022-10-09T20:56:00.978Z,11.98
2022-10-09T20:58:27.868Z,12.05
2022-10-09T21:00:54.386Z,11.84
2022-10-09T21:03:20.878Z,11.69
2022-10-09T21:05:47.368Z,11.96
2022-10-09T21:08:13.825Z,12.14
2022-10-09T21:10:44.024Z,12.18
2022-10-09T21:13:12.300Z,12.17
2022-10-09T21:15:43.642Z,12.34
2022-10-09T21:18:11.227Z,12.14
2022-10-09T21:20:38.131Z,11.83
2022-10-09T21:23:04.911Z,11.90
2022-10-09T21:25:31.399Z,11.86
2022-10-09T21:27:57.912Z,11.52
2022-10-09T21:30:26.352Z,11.68
2022-10-09T21:32:52.906Z,11.36
2022-10-09T21:35:19.752Z,11.55
2022-10-09T21:37:46.415Z,11.61
2022-10-09T21:40:12.864Z,11.49
2022-10-09T21:42:39.241Z,11.47
2022-10-09T21:45:06.592Z,11.54
2022-10-09T21:47:34.329Z,11.65
2022-10-09T21:50:00.758Z,11.20
2022-10-09T21:52:27.149Z,10.74
2022-10-09T21:54:53.823Z,11.22
2022-10-09T21:57:20.274Z,10.61
2022-10-09T21:59:47.314Z,10.89
2022-10-09T22:02:13.808Z,11.15
2022-10-09T22:04:41.549Z,10.45
2022-10-09T22:07:07.997Z,10.68
2022-10-09T22:09:34.417Z,10.63
2022-10-09T22:12:00.838Z,10.51
2022-10-09T22:14:27.323Z,11.01
2022-10-09T22:16:53.740Z,10.87
2022-10-09T22:19:20.161Z,11.03
2022-10-09T22:21:48.874Z,11.15
2022-10-09T22:24:15.343Z,10.87
2022-10-09T22:26:41.743Z,10.83
2022-10-09T22:29:08.166Z,11.02
2022-10-09T22:31:34.586Z,11.03
2022-10-09T22:34:01.959Z,10.87
2022-10-09T22:36:31.238Z,10.86
2022-10-09T22:39:01.490Z,11.02
2022-10-09T22:41:29.958Z,10.92
2022-10-09T22:43:59.040Z,11.07
2022-10-09T22:46:28.155Z,10.49
2022-10-09T22:48:55.003Z,10.55
2022-10-09T22:51:23.428Z,10.61
2022-10-09T22:53:50.045Z,10.72
2022-10-09T22:56:19.786Z,10.70
2022-10-09T22:58:47.520Z,10.63
2022-10-09T23:01:17.161Z,10.70
2022-10-09T23:03:44.193Z,11.03
2022-10-09T23:06:12.353Z,10.95
2022-10-09T23:08:40.713Z,10.76
2022-10-09T23:11:07.646Z,10.83
2022-10-09T23:13:36.330Z,11.14
2022-10-09T23:16:05.324Z,10.95
2022-10-09T23:18:32.708Z,11.18
2022-10-09T23:21:02.327Z,11.11
2022-10-09T23:23:28.893Z,11.08
2022-10-09T23:25:55.451Z,11.01
2022-10-09T23:28:21.896Z,10.80
2022-10-09T23:30:49.702Z,10.72
2022-10-09T23:33:16.144Z,10.53
2022-10-09T23:35:42.765Z,10.66
2022-10-09T23:38:09.430Z,10.46
2022-10-09T23:40:35.842Z,10.54
2022-10-09T23:43:02.285Z,10.53
2022-10-09T23:45:28.845Z,10.36
2022-10-09T23:47:56.624Z,10.63
2022-10-09T23:50:23.081Z,10.67
2022-10-09T23:52:49.679Z,10.53
2022-10-09T23:55:16.355Z,10.57
2022-10-09T23:57:42.731Z,10.51
